Česky Dansk Deutsch English Español Suomi Français Magyar Italiano Nederlands norsk Polski Português svenska Türkçe

 

Weather

Bom Jesus Da Lapa (Brazil)

10:00, 16 August 2016 (GMT)

NWNNE
WE
SWSSE
Home            
Bom Jesus Da Lapa Vitoria Da Conquista Montes Claros Ilheus Aeroporto Petrolina Salvador Aeroporto Brasilia Aeroporto Porto Seguro Gama Porto Nacional Aeroporto Caravelas Anapolis Braz-Afb Paulo Afonso Goiania Aeroporto Belo Horizonte Aeroporto Aracaju Aeroporto Belo Horizonte Maranhao / Carolina Airport Uberlandia Vitoria Aeroporto Conceicao Do Araguaia Uberaba Barbacena

To put a weather button on your web site or blog, copy the code below and paste it into your page . The first box contains HTML code, the second UBB code.


Add to Google

Details

Wind speed:2 bf, 4 kn, 2.1 m/s, 4.6 miles/h, 7.4 km/h
Wind direction:N, 360°
Visibility:Greater than 10000 m, 10 km, 32800 ft, 6.2 miles
Clouds:CAVOC
Temperature:23°C, 73°F
Feels like:24°C, 76°F
Dew-point:15°C, 59°F
Atmospheric pressure:1016 hPa, 762.1 mmHg, 30.00 inHg, 1.003 atm
Relative humidity:60.7 %
METAR:SBLP 161000Z 36004KT CAVOK 23/15 Q1016

Shortcuts

An up-to-date overview of weather conditions all over the world. Add locations with the plus (+) sign. These shortcuts can be added to Google.

Lid van de Technetium groep

website free tracking
StatCounter NetStat W3C Validator

10-08-2020 04:00:51
astro.technetium.be money.technetium.be phote.technetium.be tafeltennistafel.technetium.be www.ligfiets.net